Time;durP1;ratioP1;P1;durP2;ratioP2;P2;SDS_P1;SDS_P2;PMS_P1;PMS_P2;Temp;Humidity;BMP_temperature;BMP_pressure;BME280_temperature;BME280_humidity;BME280_pressure;Samples;Min_cycle;Max_cycle;Signal;HPM_P1;HPM_P2
2023/05/18 00:00:14;;;;;;;2.40;2.20;;;;;;;15.15;91.59;94524.28;5004840;28;20608;-67
2023/05/18 00:02:41;;;;;;;2.60;2.47;;;;;;;15.18;91.65;94524.09;5005499;28;20783;-66
2023/05/18 00:05:09;;;;;;;3.13;2.30;;;;;;;15.21;91.51;94521.34;5005856;28;20676;-67
2023/05/18 00:07:36;;;;;;;1.90;1.80;;;;;;;15.21;90.71;94524.72;5005238;28;20231;-68
2023/05/18 00:10:03;;;;;;;1.75;1.65;;;;;;;15.21;89.60;94521.34;5005931;28;20238;-65
2023/05/18 00:12:31;;;;;;;1.60;1.48;;;;;;;15.14;89.98;94522.63;5006671;28;20281;-68
2023/05/18 00:14:57;;;;;;;1.25;1.15;;;;;;;15.06;89.53;94519.72;5005656;28;20227;-65
2023/05/18 00:17:24;;;;;;;1.67;1.40;;;;;;;15.04;89.97;94524.09;5003967;28;20277;-67
2023/05/18 00:19:51;;;;;;;1.05;0.90;;;;;;;14.97;90.52;94526.19;5006847;28;20218;-69
2023/05/18 00:22:18;;;;;;;1.77;1.27;;;;;;;15.00;90.03;94526.00;4998443;28;20838;-68
2023/05/18 00:24:45;;;;;;;1.13;1.10;;;;;;;14.95;90.00;94533.97;5007019;28;21203;-66
2023/05/18 00:27:12;;;;;;;1.40;1.30;;;;;;;14.96;89.73;94529.66;5003422;28;20709;-65
2023/05/18 00:29:40;;;;;;;1.83;0.90;;;;;;;15.05;88.03;94529.13;4990178;28;20246;-68
2023/05/18 00:32:07;;;;;;;1.05;1.05;;;;;;;15.07;87.52;94529.88;4993567;28;20231;-66
2023/05/18 00:34:34;;;;;;;1.10;1.00;;;;;;;15.04;87.03;94531.78;5004752;28;20211;-66
2023/05/18 00:37:00;;;;;;;1.58;0.70;;;;;;;14.92;88.00;94534.13;5007783;28;20235;-65
2023/05/18 00:39:27;;;;;;;0.85;0.85;;;;;;;14.92;88.50;94530.75;4998953;28;20238;-66
2023/05/18 00:41:54;;;;;;;0.80;0.80;;;;;;;14.91;88.40;94532.50;5003966;28;22152;-67
2023/05/18 00:44:21;;;;;;;1.55;1.45;;;;;;;15.05;87.97;94533.44;4982876;28;20319;-66
2023/05/18 00:46:49;;;;;;;2.60;1.63;;;;;;;14.92;88.96;94539.25;5005834;28;20241;-66
2023/05/18 00:49:15;;;;;;;2.95;1.00;;;;;;;14.92;89.27;94535.88;5005770;28;20936;-65
2023/05/18 00:51:43;;;;;;;1.00;1.00;;;;;;;14.90;89.45;94535.97;5007751;28;20765;-66
2023/05/18 00:54:10;;;;;;;1.25;1.25;;;;;;;14.92;89.47;94534.13;5005164;28;20255;-66
2023/05/18 00:56:40;;;;;;;1.20;1.10;;;;;;;14.98;89.45;94526.09;5009841;28;20235;-66
2023/05/18 00:59:08;;;;;;;1.70;1.60;;;;;;;15.01;89.91;94524.28;5008297;28;20215;-67
2023/05/18 01:01:35;;;;;;;4.65;1.15;;;;;;;15.02;89.59;94518.25;5003566;28;20303;-66
2023/05/18 01:04:04;;;;;;;1.52;1.42;;;;;;;15.01;90.08;94519.16;5007222;28;20223;-67
2023/05/18 01:06:34;;;;;;;1.70;1.60;;;;;;;15.00;90.69;94517.50;5007330;28;20212;-66
2023/05/18 01:09:03;;;;;;;2.00;1.88;;;;;;;14.94;91.03;94516.97;5006611;28;21715;-66
2023/05/18 01:11:37;;;;;;;2.90;1.70;;;;;;;14.94;90.97;94522.06;5006469;28;20208;-66
2023/05/18 01:14:11;;;;;;;1.20;1.20;;;;;;;15.04;91.18;94521.53;5008744;28;20203;-65
2023/05/18 01:16:43;;;;;;;1.02;1.02;;;;;;;15.00;90.71;94517.50;5008976;28;20207;-65
2023/05/18 01:19:27;;;;;;;1.70;1.60;;;;;;;14.95;90.92;94518.59;5005936;28;20198;-67
2023/05/18 01:21:58;;;;;;;1.27;1.17;;;;;;;14.87;91.13;94523.34;5007301;28;20393;-66
2023/05/18 01:24:35;;;;;;;1.05;1.05;;;;;;;14.87;91.07;94523.34;5007999;28;20211;-66
2023/05/18 01:27:07;;;;;;;3.13;1.23;;;;;;;14.91;90.99;94516.31;5007331;28;20206;-66
2023/05/18 01:29:35;;;;;;;0.90;0.90;;;;;;;14.92;90.60;94520.53;5006397;28;20290;-65
2023/05/18 01:32:06;;;;;;;1.00;1.00;;;;;;;14.92;90.52;94528.19;5008666;28;20207;-67
2023/05/18 01:34:33;;;;;;;1.35;1.30;;;;;;;14.89;90.87;94529.19;5008932;28;20761;-67
2023/05/18 01:37:00;;;;;;;0.95;0.95;;;;;;;14.86;91.18;94524.25;5009370;28;20745;-66
2023/05/18 01:39:26;;;;;;;0.80;0.80;;;;;;;14.88;90.91;94522.44;5006520;28;20690;-67
2023/05/18 01:41:58;;;;;;;1.13;1.13;;;;;;;14.98;90.62;94526.09;5008554;28;20296;-66
2023/05/18 01:44:34;;;;;;;2.15;1.00;;;;;;;15.00;90.52;94532.88;5007797;28;20517;-66
2023/05/18 01:47:07;;;;;;;0.80;0.77;;;;;;;14.95;90.74;94531.41;5009857;28;20235;-66
2023/05/18 01:49:38;;;;;;;1.08;1.08;;;;;;;15.04;90.35;94527.47;5007785;28;20234;-67
2023/05/18 01:52:11;;;;;;;2.13;1.25;;;;;;;15.15;88.86;94516.59;5007757;28;20318;-67
2023/05/18 01:54:42;;;;;;;1.80;1.40;;;;;;;14.91;90.01;94531.66;5006824;28;20293;-67
2023/05/18 01:57:10;;;;;;;1.55;1.20;;;;;;;14.80;90.57;94534.88;5009414;28;20321;-65
2023/05/18 01:59:40;;;;;;;1.08;1.08;;;;;;;14.85;90.87;94527.72;5011420;28;20295;-66
2023/05/18 02:02:06;;;;;;;1.10;0.80;;;;;;;14.81;91.08;94536.50;5012048;28;20274;-66
2023/05/18 02:04:34;;;;;;;1.25;1.25;;;;;;;14.73;91.79;94541.25;5012730;28;20239;-67
2023/05/18 02:07:00;;;;;;;1.77;1.10;;;;;;;14.76;91.61;94530.00;5012117;28;20206;-65
2023/05/18 02:09:27;;;;;;;1.42;1.42;;;;;;;14.73;91.75;94530.19;5012046;28;20296;-66
2023/05/18 02:11:54;;;;;;;1.00;0.90;;;;;;;14.67;91.73;94528.81;5011925;28;20230;-66
2023/05/18 02:14:20;;;;;;;0.98;0.98;;;;;;;14.68;91.88;94535.56;5012740;28;20294;-66
2023/05/18 02:16:51;;;;;;;1.17;1.17;;;;;;;14.58;92.03;94540.41;5012175;28;20342;-65
2023/05/18 02:19:18;;;;;;;1.30;1.20;;;;;;;14.67;92.03;94538.22;5011825;28;20235;-66
2023/05/18 02:21:45;;;;;;;0.88;0.88;;;;;;;14.64;91.83;94531.53;5011552;28;20239;-67
2023/05/18 02:24:12;;;;;;;1.00;1.00;;;;;;;14.63;91.69;94538.38;5012319;28;20657;-67
2023/05/18 02:26:39;;;;;;;1.17;1.00;;;;;;;14.63;92.05;94540.13;5013284;28;20214;-66
2023/05/18 02:29:08;;;;;;;1.40;1.40;;;;;;;14.69;91.61;94538.94;5011395;28;20288;-67
2023/05/18 02:31:35;;;;;;;1.42;1.42;;;;;;;14.67;91.68;94533.09;5010453;28;20337;-67
2023/05/18 02:34:03;;;;;;;1.10;1.10;;;;;;;14.62;91.96;94535.91;5011176;28;20901;-66
2023/05/18 02:36:35;;;;;;;1.00;1.00;;;;;;;14.55;92.17;94537.19;5012460;28;20239;-65
2023/05/18 02:39:02;;;;;;;0.85;0.82;;;;;;;14.56;92.34;94536.28;5012034;28;20641;-65
2023/05/18 02:41:29;;;;;;;1.30;1.20;;;;;;;14.53;92.72;94544.13;5011925;28;20236;-65
2023/05/18 02:43:56;;;;;;;1.50;1.40;;;;;;;14.48;92.80;94533.34;5011283;28;20223;-66
2023/05/18 02:46:23;;;;;;;1.25;1.25;;;;;;;14.56;92.38;94541.41;5012277;28;20227;-66
2023/05/18 02:48:50;;;;;;;1.05;1.05;;;;;;;14.60;92.30;94538.56;5011198;28;20207;-66
2023/05/18 02:51:18;;;;;;;3.13;1.30;;;;;;;14.60;92.05;94542.84;5012142;28;20237;-66
2023/05/18 02:53:44;;;;;;;1.73;1.17;;;;;;;14.61;92.00;94550.44;5009792;28;20305;-67
2023/05/18 02:56:12;;;;;;;1.42;1.33;;;;;;;14.69;91.73;94556.84;5012017;28;20211;-68
2023/05/18 02:58:38;;;;;;;1.20;1.20;;;;;;;14.69;91.61;94557.66;5011084;28;20203;-67
2023/05/18 03:01:06;;;;;;;1.30;1.20;;;;;;;14.62;91.28;94552.06;5011138;28;20649;-65
2023/05/18 03:03:34;;;;;;;1.48;1.10;;;;;;;14.56;92.19;94564.41;5011941;28;20219;-66
2023/05/18 03:06:01;;;;;;;1.42;1.35;;;;;;;14.57;92.25;94572.00;5011545;28;20202;-68
2023/05/18 03:08:30;;;;;;;2.55;1.33;;;;;;;14.54;92.53;94574.72;5011660;28;20880;-65
2023/05/18 03:10:57;;;;;;;1.50;1.40;;;;;;;14.46;92.91;94578.63;5011514;28;20239;-69
2023/05/18 03:13:24;;;;;;;1.25;1.20;;;;;;;14.50;92.76;94573.25;5009545;28;20270;-68
2023/05/18 03:15:51;;;;;;;1.63;1.15;;;;;;;14.48;92.82;94574.25;5009318;28;20885;-67
2023/05/18 03:18:18;;;;;;;1.08;1.08;;;;;;;14.46;92.65;94587.09;5011105;28;20226;-64
2023/05/18 03:20:45;;;;;;;1.48;1.30;;;;;;;14.56;92.31;94587.44;5011205;28;20219;-67
2023/05/18 03:23:11;;;;;;;1.58;1.20;;;;;;;14.60;92.47;94599.94;5011838;28;20281;-67
2023/05/18 03:25:39;;;;;;;1.23;1.23;;;;;;;14.68;91.93;94594.38;5011729;28;20301;-65
2023/05/18 03:28:06;;;;;;;1.30;1.20;;;;;;;14.67;91.39;94595.28;5010468;28;20269;-64
2023/05/18 03:30:33;;;;;;;1.50;1.40;;;;;;;14.68;91.47;94599.50;5010794;28;20243;-65
2023/05/18 03:33:00;;;;;;;1.67;1.58;;;;;;;14.64;91.79;94598.03;5010776;28;20483;-67
2023/05/18 03:35:27;;;;;;;2.83;1.95;;;;;;;14.63;92.40;94604.03;5009811;28;20220;-67
2023/05/18 03:37:54;;;;;;;1.65;1.55;;;;;;;14.66;92.27;94610.72;5010727;28;20207;-66
2023/05/18 03:40:21;;;;;;;1.88;1.77;;;;;;;14.67;92.17;94602.97;5009789;28;20603;-67
2023/05/18 03:42:49;;;;;;;1.90;1.80;;;;;;;14.74;92.30;94596.59;5010671;28;20787;-66
2023/05/18 03:45:16;;;;;;;1.77;1.67;;;;;;;14.82;91.80;94608.97;5009186;28;20293;-67
2023/05/18 03:47:43;;;;;;;3.67;3.47;;;;;;;14.78;92.15;94602.38;5008836;28;20232;-67
2023/05/18 03:50:10;;;;;;;7.30;6.60;;;;;;;14.82;91.83;94603.84;5008552;28;20230;-68
2023/05/18 03:52:37;;;;;;;19.10;14.40;;;;;;;14.77;92.06;94606.66;5009008;28;20608;-67
2023/05/18 03:55:05;;;;;;;3.47;3.28;;;;;;;14.92;91.48;94613.44;5008623;28;20204;-66
2023/05/18 03:57:32;;;;;;;3.40;3.15;;;;;;;14.93;91.20;94617.66;5009986;28;20293;-65
2023/05/18 04:00:00;;;;;;;5.20;3.00;;;;;;;14.91;91.26;94611.81;5008558;28;20231;-69
2023/05/18 04:02:27;;;;;;;2.50;2.30;;;;;;;15.02;90.95;94621.44;5010560;28;20293;-67
2023/05/18 04:04:56;;;;;;;2.85;2.63;;;;;;;15.08;90.52;94622.81;5009143;28;20231;-68
2023/05/18 04:07:23;;;;;;;2.75;2.53;;;;;;;15.00;90.86;94627.53;5010234;28;20203;-67
2023/05/18 04:09:51;;;;;;;7.25;6.65;;;;;;;14.92;91.88;94616.00;5009644;28;20339;-65
2023/05/18 04:12:17;;;;;;;17.85;14.40;;;;;;;14.97;91.52;94619.13;5010747;28;20672;-67
2023/05/18 04:14:48;;;;;;;6.47;5.90;;;;;;;15.00;91.04;94622.44;5009015;28;20219;-67
2023/05/18 04:17:16;;;;;;;3.58;3.25;;;;;;;15.12;89.94;94640.44;5010154;28;20210;-65
2023/05/18 04:19:43;;;;;;;4.50;3.65;;;;;;;15.08;90.12;94638.16;5009343;28;20247;-66
2023/05/18 04:22:10;;;;;;;2.90;2.70;;;;;;;15.07;90.42;94636.53;5010155;28;20308;-67
2023/05/18 04:24:37;;;;;;;3.38;3.00;;;;;;;15.02;91.16;94633.41;5009900;28;20222;-65
2023/05/18 04:27:04;;;;;;;2.63;2.38;;;;;;;15.07;91.26;94628.84;5010732;28;20208;-66
2023/05/18 04:29:31;;;;;;;2.95;2.80;;;;;;;15.22;89.93;94633.06;5008909;28;20258;-67
2023/05/18 04:31:59;;;;;;;3.35;2.97;;;;;;;15.27;89.61;94641.31;5010439;28;20216;-68
2023/05/18 04:34:28;;;;;;;4.93;3.25;;;;;;;15.30;89.64;94633.44;5009615;28;20755;-66
2023/05/18 04:36:55;;;;;;;11.18;8.93;;;;;;;15.36;89.62;94640.75;5009887;28;20208;-68
2023/05/18 04:39:22;;;;;;;8.55;7.75;;;;;;;15.43;89.36;94639.47;5009890;28;20316;-67
2023/05/18 04:41:49;;;;;;;6.53;5.28;;;;;;;15.49;89.03;94648.53;5010849;28;20203;-65
2023/05/18 04:44:17;;;;;;;4.65;4.25;;;;;;;15.51;88.33;94647.53;5008857;28;21874;-65
2023/05/18 04:46:46;;;;;;;4.18;3.75;;;;;;;15.48;89.09;94640.03;5010217;28;20681;-67
2023/05/18 04:49:12;;;;;;;3.67;3.38;;;;;;;15.56;88.47;94648.13;5010052;28;20204;-67
2023/05/18 04:51:41;;;;;;;3.53;3.30;;;;;;;15.59;87.77;94653.03;5010206;28;20250;-68
2023/05/18 04:54:07;;;;;;;3.17;3.00;;;;;;;15.64;87.58;94650.22;5009592;28;21018;-66
2023/05/18 04:56:34;;;;;;;3.97;3.58;;;;;;;15.57;88.00;94656.63;5009539;28;20603;-67
2023/05/18 04:59:01;;;;;;;3.80;3.15;;;;;;;15.51;88.28;94657.78;5008792;28;20212;-68
2023/05/18 05:01:28;;;;;;;4.18;3.90;;;;;;;15.40;88.88;94664.44;5009762;28;20213;-67
2023/05/18 05:03:54;;;;;;;3.35;3.10;;;;;;;15.32;89.55;94670.03;5009495;28;20254;-66
2023/05/18 05:06:21;;;;;;;3.78;3.55;;;;;;;15.39;89.07;94673.03;5009724;28;20288;-67
2023/05/18 05:08:49;;;;;;;3.95;3.63;;;;;;;15.41;89.14;94679.72;5009361;28;20234;-67
2023/05/18 05:11:16;;;;;;;8.20;4.00;;;;;;;15.43;89.24;94677.88;5009586;28;20312;-65
2023/05/18 05:13:42;;;;;;;3.50;3.22;;;;;;;15.29;89.46;94663.34;5009720;28;20265;-67
2023/05/18 05:16:09;;;;;;;4.28;3.78;;;;;;;15.37;89.79;94680.78;5009503;28;20681;-67
2023/05/18 05:18:36;;;;;;;4.07;3.78;;;;;;;15.39;89.57;94689.22;5010021;28;20231;-67
2023/05/18 05:21:03;;;;;;;4.15;3.95;;;;;;;15.41;89.68;94684.81;5009926;28;20252;-68
2023/05/18 05:23:29;;;;;;;3.92;3.67;;;;;;;15.44;89.33;94688.94;5009133;28;20718;-68
2023/05/18 05:25:58;;;;;;;3.63;3.33;;;;;;;15.43;89.36;94690.69;5010366;28;20257;-68
2023/05/18 05:28:24;;;;;;;3.88;3.67;;;;;;;15.43;89.33;94690.69;5009601;28;20332;-68
2023/05/18 05:30:51;;;;;;;4.68;4.38;;;;;;;15.41;89.32;94695.06;5010140;28;21039;-67
2023/05/18 05:33:18;;;;;;;4.25;3.95;;;;;;;15.38;88.43;94692.69;5011326;28;20239;-67
2023/05/18 05:35:45;;;;;;;4.53;4.25;;;;;;;15.30;89.47;94694.88;5012614;28;20346;-67
2023/05/18 05:38:11;;;;;;;5.03;4.55;;;;;;;15.19;89.75;94694.66;5013491;28;20309;-68
2023/05/18 05:40:38;;;;;;;8.45;6.10;;;;;;;15.25;89.81;94699.44;5014435;28;20227;-68
2023/05/18 05:43:06;;;;;;;9.55;6.00;;;;;;;15.18;90.04;94709.19;5014243;28;20285;-67
2023/05/18 05:45:33;;;;;;;4.78;4.00;;;;;;;15.14;90.21;94705.16;5010715;28;20640;-67
2023/05/18 05:48:00;;;;;;;16.75;9.00;;;;;;;15.20;90.06;94707.38;5011299;28;20208;-66
2023/05/18 05:50:27;;;;;;;22.50;11.50;;;;;;;15.23;89.63;94706.38;5011409;28;20622;-68
2023/05/18 05:52:54;;;;;;;19.90;11.20;;;;;;;15.30;89.20;94712.81;5011699;28;20247;-68
2023/05/18 05:55:21;;;;;;;16.17;7.80;;;;;;;15.27;89.18;94710.41;5010364;28;21357;-66
2023/05/18 05:57:48;;;;;;;16.92;10.60;;;;;;;15.23;89.77;94711.50;5011597;28;20265;-65
2023/05/18 06:00:17;;;;;;;7.75;6.32;;;;;;;15.18;90.27;94716.06;5011800;28;20281;-67
2023/05/18 06:02:43;;;;;;;12.30;7.30;;;;;;;15.18;90.02;94713.50;5012875;28;21451;-68
2023/05/18 06:05:10;;;;;;;7.32;5.82;;;;;;;15.18;90.26;94710.94;5013450;28;20356;-68
2023/05/18 06:07:37;;;;;;;10.20;6.43;;;;;;;15.18;90.42;94718.63;5012841;28;20228;-68
2023/05/18 06:10:04;;;;;;;19.88;8.93;;;;;;;15.21;90.36;94715.88;5011963;28;20348;-67
2023/05/18 06:12:30;;;;;;;9.05;6.13;;;;;;;15.33;89.31;94717.75;5013689;28;20639;-67
2023/05/18 06:14:57;;;;;;;7.50;5.65;;;;;;;15.37;88.95;94714.09;5013119;28;20304;-66
2023/05/18 06:17:25;;;;;;;5.15;4.65;;;;;;;15.55;87.77;94717.34;5013366;28;20204;-68
2023/05/18 06:19:52;;;;;;;3.67;3.08;;;;;;;15.44;87.33;94720.50;5012011;28;20243;-67
2023/05/18 06:22:19;;;;;;;3.70;3.40;;;;;;;15.44;87.92;94722.25;5012415;28;20239;-67
2023/05/18 06:24:46;;;;;;;4.30;3.63;;;;;;;15.46;88.33;94723.81;5010794;28;20701;-66
2023/05/18 06:27:12;;;;;;;4.05;3.85;;;;;;;15.46;88.83;94722.97;5012579;28;20763;-67
2023/05/18 06:29:39;;;;;;;4.25;3.95;;;;;;;15.49;87.97;94728.75;5011632;28;20211;-67
2023/05/18 06:32:07;;;;;;;4.10;3.75;;;;;;;15.46;88.35;94728.09;5012764;28;20203;-66
2023/05/18 06:34:36;;;;;;;3.78;3.50;;;;;;;15.54;88.41;94737.00;5011728;28;22221;-67
2023/05/18 06:37:03;;;;;;;3.95;3.65;;;;;;;15.83;87.05;94731.94;5011939;28;20210;-65
2023/05/18 06:39:30;;;;;;;3.90;3.42;;;;;;;15.93;85.36;94744.09;5010809;28;20218;-65
2023/05/18 06:41:57;;;;;;;4.55;4.25;;;;;;;16.10;84.35;94740.53;5010084;28;20693;-66
2023/05/18 06:44:23;;;;;;;6.13;5.55;;;;;;;16.03;84.99;94754.63;5009701;28;20273;-67
2023/05/18 06:46:50;;;;;;;4.50;4.30;;;;;;;16.24;84.30;94742.28;5011851;28;20266;-67
2023/05/18 06:49:17;;;;;;;4.07;3.88;;;;;;;16.45;83.09;94750.38;5011163;28;20239;-68
2023/05/18 06:51:45;;;;;;;8.38;5.22;;;;;;;16.48;83.63;94742.50;5011689;28;20227;-68
2023/05/18 06:54:11;;;;;;;10.38;5.97;;;;;;;16.81;83.24;94753.28;5012057;28;20207;-65
2023/05/18 06:56:38;;;;;;;5.75;5.13;;;;;;;17.23;82.20;94759.16;5012413;28;20219;-67
2023/05/18 06:59:05;;;;;;;4.90;4.50;;;;;;;17.63;80.29;94757.38;5011761;28;20674;-66
2023/05/18 07:01:32;;;;;;;5.18;4.75;;;;;;;18.01;78.74;94770.31;5010302;28;20308;-67
2023/05/18 07:03:59;;;;;;;4.72;4.25;;;;;;;18.19;78.00;94771.63;5010016;28;20238;-68
2023/05/18 07:06:25;;;;;;;7.43;6.30;;;;;;;18.14;77.79;94778.81;5012221;28;20697;-66
2023/05/18 07:08:53;;;;;;;9.05;6.57;;;;;;;17.91;77.66;94771.84;5010453;28;20228;-69
2023/05/18 07:11:20;;;;;;;8.18;7.50;;;;;;;17.71;77.70;94777.47;5011731;28;20235;-68
2023/05/18 07:13:47;;;;;;;9.20;6.85;;;;;;;17.36;78.41;94775.41;5011611;28;20203;-66
2023/05/18 07:16:14;;;;;;;19.15;13.20;;;;;;;17.03;79.25;94787.88;5012244;28;20227;-66
2023/05/18 07:18:41;;;;;;;8.98;8.07;;;;;;;16.90;78.52;94788.63;5010475;28;20788;-68
2023/05/18 07:21:08;;;;;;;7.93;7.25;;;;;;;16.80;78.09;94791.88;5011845;28;20210;-69
2023/05/18 07:23:34;;;;;;;7.32;6.47;;;;;;;16.56;78.82;94795.00;5011390;28;20688;-67
2023/05/18 07:26:02;;;;;;;7.20;6.60;;;;;;;16.64;79.23;94794.53;5010716;28;20285;-66
2023/05/18 07:28:29;;;;;;;8.90;8.07;;;;;;;16.37;79.48;94798.75;5010151;28;20666;-66
2023/05/18 07:30:56;;;;;;;8.57;7.65;;;;;;;16.22;80.35;94803.88;5011827;28;20307;-67
2023/05/18 07:33:22;;;;;;;8.10;7.50;;;;;;;16.23;80.09;94802.97;5011071;28;20266;-68
2023/05/18 07:35:49;;;;;;;8.70;6.97;;;;;;;16.22;78.79;94805.63;5011242;28;20292;-68
2023/05/18 07:38:16;;;;;;;8.65;7.60;;;;;;;16.05;77.20;94803.25;5011371;28;20294;-68
2023/05/18 07:40:42;;;;;;;8.30;7.68;;;;;;;15.99;77.82;94807.81;5008900;28;20277;-68
2023/05/18 07:43:11;;;;;;;12.23;7.75;;;;;;;15.81;77.77;94811.47;5010241;28;20739;-68
2023/05/18 07:45:37;;;;;;;9.35;8.48;;;;;;;15.77;77.74;94814.28;5009162;28;20658;-65
2023/05/18 07:48:06;;;;;;;8.73;7.93;;;;;;;15.56;77.37;94812.03;5008699;28;20311;-66
2023/05/18 07:50:33;;;;;;;11.18;7.97;;;;;;;15.63;77.87;94813.31;5008506;28;20224;-66
2023/05/18 07:53:00;;;;;;;9.73;8.43;;;;;;;15.86;76.03;94823.97;5009182;28;20204;-66
2023/05/18 07:55:27;;;;;;;10.70;8.43;;;;;;;15.61;76.22;94822.81;5008718;28;20206;-68
2023/05/18 07:57:53;;;;;;;10.68;8.57;;;;;;;15.80;76.08;94829.47;5009642;28;20218;-66
2023/05/18 08:00:22;;;;;;;9.43;8.52;;;;;;;15.87;75.29;94834.16;5009474;28;20700;-67
2023/05/18 08:02:48;;;;;;;10.18;8.82;;;;;;;15.81;75.02;94838.81;5010996;28;21289;-65
2023/05/18 08:05:15;;;;;;;14.00;9.07;;;;;;;15.76;75.26;94835.69;5010568;28;20259;-68
2023/05/18 08:07:42;;;;;;;11.32;8.55;;;;;;;15.84;76.00;94830.94;5010970;28;20576;-67
2023/05/18 08:10:10;;;;;;;16.40;9.93;;;;;;;15.91;76.55;94842.47;5009395;28;20235;-68
2023/05/18 08:12:36;;;;;;;13.88;8.85;;;;;;;16.00;76.47;94847.09;5010809;28;20215;-67
2023/05/18 08:15:03;;;;;;;8.63;7.72;;;;;;;15.82;73.93;94850.72;5011617;28;20224;-67
2023/05/18 08:17:31;;;;;;;9.88;7.18;;;;;;;15.92;74.86;94854.38;5009727;28;20316;-66
2023/05/18 08:19:58;;;;;;;7.28;6.60;;;;;;;15.69;72.98;94852.31;5010359;28;20232;-67
2023/05/18 08:22:25;;;;;;;11.50;7.25;;;;;;;15.61;72.12;94851.00;5009245;28;20294;-66
2023/05/18 08:24:51;;;;;;;8.43;6.22;;;;;;;15.60;72.78;94862.16;5009992;28;20724;-68
2023/05/18 08:27:18;;;;;;;8.63;5.88;;;;;;;15.71;75.03;94863.31;5010073;28;20227;-66
2023/05/18 08:29:45;;;;;;;7.43;6.70;;;;;;;15.46;73.47;94867.22;5009684;28;20207;-64
2023/05/18 08:32:12;;;;;;;19.10;7.00;;;;;;;15.34;74.60;94867.91;5009143;28;20812;-64
2023/05/18 08:34:40;;;;;;;7.97;7.25;;;;;;;15.34;74.49;94872.19;5010105;28;20684;-66
2023/05/18 08:37:07;;;;;;;7.30;6.35;;;;;;;15.46;74.43;94876.63;5011392;28;20206;-66
2023/05/18 08:39:35;;;;;;;16.60;7.15;;;;;;;15.26;74.86;94880.28;5009928;28;20227;-65
2023/05/18 08:42:03;;;;;;;10.52;7.70;;;;;;;15.18;74.88;94879.88;5009449;28;20317;-65
2023/05/18 08:44:38;;;;;;;9.48;7.28;;;;;;;15.31;75.51;94884.25;5009691;28;20247;-66
2023/05/18 08:47:09;;;;;;;12.20;6.88;;;;;;;15.16;74.55;94884.25;5011292;28;20237;-67
2023/05/18 08:49:36;;;;;;;14.45;6.97;;;;;;;15.22;74.52;94884.75;5010539;28;20199;-66
2023/05/18 08:52:07;;;;;;;9.27;7.32;;;;;;;15.25;74.95;94888.88;5009458;28;20305;-67
2023/05/18 08:54:37;;;;;;;8.30;6.32;;;;;;;15.32;74.35;94895.31;5010203;28;20590;-65
2023/05/18 08:57:07;;;;;;;9.52;5.90;;;;;;;15.27;72.70;94898.13;5009484;28;20682;-67
2023/05/18 08:59:39;;;;;;;6.65;5.78;;;;;;;15.39;72.74;94901.75;5010278;28;20830;-66
2023/05/18 09:02:06;;;;;;;6.63;5.95;;;;;;;15.28;72.55;94904.91;5009273;28;20235;-67
2023/05/18 09:04:34;;;;;;;7.72;6.88;;;;;;;15.42;72.91;94905.88;5008855;28;20266;-68
2023/05/18 09:07:02;;;;;;;8.75;6.47;;;;;;;15.55;72.65;94912.81;5012686;28;20212;-66
2023/05/18 09:09:32;;;;;;;10.00;6.60;;;;;;;15.60;72.38;94915.13;5012946;28;20250;-66
2023/05/18 09:11:59;;;;;;;13.57;6.45;;;;;;;15.63;70.62;94918.34;5013120;28;20302;-67
2023/05/18 09:14:25;;;;;;;7.15;6.30;;;;;;;15.46;70.61;94928.66;5011144;28;20235;-67
2023/05/18 09:16:52;;;;;;;9.55;6.72;;;;;;;15.27;71.20;94925.47;5012938;28;20261;-68
2023/05/18 09:19:19;;;;;;;5.72;5.22;;;;;;;15.32;71.96;94937.13;5012065;28;20323;-64
2023/05/18 09:21:46;;;;;;;11.80;6.22;;;;;;;15.58;73.04;94928.03;5012134;28;20859;-65
2023/05/18 09:24:14;;;;;;;6.68;4.80;;;;;;;15.63;69.57;94935.44;5014700;28;20239;-65
2023/05/18 09:26:42;;;;;;;12.50;6.20;;;;;;;15.63;70.32;94930.31;5012597;28;20255;-67
2023/05/18 09:29:19;;;;;;;9.35;5.80;;;;;;;15.53;70.70;94937.69;5012878;28;20235;-68
2023/05/18 09:31:46;;;;;;;5.90;5.35;;;;;;;15.62;70.86;94939.75;5012565;28;20796;-67
2023/05/18 09:34:13;;;;;;;11.52;6.20;;;;;;;15.83;71.47;94937.75;5012628;28;20779;-68
2023/05/18 09:36:41;;;;;;;6.43;5.63;;;;;;;15.93;70.66;94941.44;5012083;28;20232;-65
2023/05/18 09:39:10;;;;;;;7.13;5.53;;;;;;;15.77;69.66;94937.25;5013005;28;20246;-66
2023/05/18 09:41:38;;;;;;;9.60;6.57;;;;;;;15.60;71.50;94939.00;5011756;28;20195;-68
2023/05/18 09:44:08;;;;;;;9.25;6.75;;;;;;;15.69;72.26;94936.84;5013054;28;20207;-68
2023/05/18 09:46:35;;;;;;;8.45;6.80;;;;;;;15.88;72.86;94945.16;5012196;28;20223;-69
2023/05/18 09:49:04;;;;;;;9.40;7.45;;;;;;;16.07;73.77;94950.94;5013156;28;20239;-66
2023/05/18 09:51:30;;;;;;;10.90;6.80;;;;;;;16.23;71.40;94941.44;5012104;28;20246;-68
2023/05/18 09:53:58;;;;;;;11.93;7.20;;;;;;;16.30;71.88;94940.19;5012624;28;20212;-69
2023/05/18 09:56:26;;;;;;;9.90;7.40;;;;;;;16.32;70.98;94948.59;5012206;28;20235;-64
2023/05/18 09:58:53;;;;;;;10.00;6.97;;;;;;;16.18;71.96;94943.44;5012692;28;20232;-67
2023/05/18 10:01:21;;;;;;;14.82;7.03;;;;;;;16.13;69.90;94945.44;5012816;28;20207;-68
2023/05/18 10:03:48;;;;;;;11.82;7.13;;;;;;;16.03;71.16;94949.44;5012743;28;20235;-65
2023/05/18 10:06:18;;;;;;;11.18;7.60;;;;;;;16.14;71.54;94952.19;5011961;28;20255;-67
2023/05/18 10:08:46;;;;;;;8.85;7.97;;;;;;;16.02;73.07;94957.22;5011397;28;20212;-68
2023/05/18 10:11:12;;;;;;;12.48;8.57;;;;;;;16.06;73.44;94959.53;5012227;28;20388;-67
2023/05/18 10:13:42;;;;;;;9.88;7.72;;;;;;;16.07;73.48;94958.63;5012966;28;20282;-68
2023/05/18 10:16:09;;;;;;;9.95;7.25;;;;;;;16.18;73.79;94953.69;5013618;28;20291;-68
2023/05/18 10:18:38;;;;;;;7.78;7.15;;;;;;;16.38;73.81;94960.22;5011621;28;20211;-65
2023/05/18 10:21:06;;;;;;;7.40;6.72;;;;;;;16.54;73.52;94957.63;5001148;28;21729;-69
2023/05/18 10:23:35;;;;;;;11.45;7.32;;;;;;;16.67;72.86;94956.00;5005812;28;20208;-64
2023/05/18 10:26:05;;;;;;;11.13;7.43;;;;;;;16.78;73.02;94963.06;5008231;28;20707;-65
2023/05/18 10:28:37;;;;;;;10.15;7.93;;;;;;;16.87;72.61;94965.91;5007024;28;20298;-65
2023/05/18 10:31:06;;;;;;;11.82;7.55;;;;;;;16.90;72.69;94970.84;5007214;28;20286;-66
2023/05/18 10:33:35;;;;;;;8.98;7.85;;;;;;;16.93;72.46;94972.41;5007738;28;20254;-67
2023/05/18 10:36:05;;;;;;;8.80;8.07;;;;;;;16.86;72.44;94969.38;5007305;28;20695;-66
2023/05/18 10:38:33;;;;;;;8.25;7.35;;;;;;;16.78;71.16;94970.78;5006607;28;20208;-66
2023/05/18 10:41:00;;;;;;;9.98;8.10;;;;;;;16.73;71.12;94970.22;5008600;28;20294;-68
2023/05/18 10:43:28;;;;;;;9.23;8.00;;;;;;;16.69;71.08;94974.69;5007699;28;20262;-69
2023/05/18 10:45:57;;;;;;;12.52;8.93;;;;;;;16.63;70.46;94969.88;5006746;28;20319;-68
2023/05/18 10:48:25;;;;;;;9.05;8.18;;;;;;;16.58;70.54;94977.06;5007609;28;20215;-66
2023/05/18 10:50:54;;;;;;;9.98;8.75;;;;;;;16.46;71.22;94988.00;5008237;28;20280;-67
2023/05/18 10:53:25;;;;;;;13.93;8.60;;;;;;;16.27;71.67;94988.25;5008183;28;20235;-69
2023/05/18 10:55:52;;;;;;;8.63;7.40;;;;;;;16.24;72.13;94989.25;5007202;28;20204;-65
2023/05/18 10:58:21;;;;;;;7.85;7.07;;;;;;;16.14;72.13;94988.09;5006907;28;20256;-67
2023/05/18 11:00:50;;;;;;;12.48;7.93;;;;;;;16.02;72.70;94993.09;5006443;28;20349;-64
2023/05/18 11:03:18;;;;;;;12.68;7.38;;;;;;;15.96;72.64;94995.09;5007197;28;20203;-67
2023/05/18 11:05:49;;;;;;;11.00;7.28;;;;;;;15.90;72.62;94999.72;5007798;28;21580;-68
2023/05/18 11:08:26;;;;;;;8.02;7.32;;;;;;;15.75;73.15;94992.88;5006217;28;20277;-67
2023/05/18 11:11:00;;;;;;;13.55;7.93;;;;;;;15.86;73.10;94993.94;5007840;28;20261;-66
2023/05/18 11:13:29;;;;;;;11.35;7.80;;;;;;;15.82;73.32;95002.72;5006834;28;20211;-67
2023/05/18 11:16:06;;;;;;;8.90;7.25;;;;;;;15.95;73.29;94996.00;5006920;28;20207;-66
2023/05/18 11:18:36;;;;;;;12.52;7.80;;;;;;;16.21;72.39;94997.09;5005714;28;20342;-66
2023/05/18 11:21:02;;;;;;;23.88;7.60;;;;;;;16.23;71.98;94997.84;5007020;28;20340;-67
2023/05/18 11:23:32;;;;;;;9.05;8.15;;;;;;;16.50;71.27;95000.56;5006709;28;21334;-68
2023/05/18 11:26:03;;;;;;;12.10;10.70;;;;;;;16.67;71.21;94999.63;5006937;28;20318;-67
2023/05/18 11:28:30;;;;;;;9.75;7.45;;;;;;;16.41;70.60;95005.41;5006862;28;20208;-68
2023/05/18 11:30:57;;;;;;;10.48;8.20;;;;;;;16.24;71.44;95014.06;5007022;28;20303;-69
2023/05/18 11:33:27;;;;;;;14.05;7.75;;;;;;;16.14;71.81;95011.16;5007232;28;20313;-64